Pagina principale
METAR-TAF:

METAR-TAF

Aeroporti :

Oberpfaffenhofen, Germania

latitudine: 48-05N, longitudine: 011-17E, altezza: 600 m

Osservazione

Il bollettino è stato emesso 35 minuti fa, alle 07:20 UTC
Vento 8 kt da est/nord-est, variando fra nord/nord-est e est
Temperature 20°C
Umidità 73%
Pressione 1022 hPa
Visibilità 10 km o più
nessuna nube inferiore a 1500 m e nessun cumulonembo

METAR: EDMO 180720Z 07008KT 030V100 CAVOK 20/15 Q1022

Ora: 09:55 (07:55 UTC)

Previsione

Il bollettino è stato emesso 2 ore e 55 minuti fa, alle 05:00 UTC
Previsione valida dal 18 alle 06 UTC al 18 alle 15 UTC
Vento 8 kt da est/nord-est
Visibilità 10 km o più
Nubi sparse ad un'altezza di 3500 ft

TAF: EDMO 180500Z 1806/1815 06008KT 9999 SCT035

Osservazioni e previsioni meteorologiche di più di 4000 aeroporti (messaggi METAR e TAF).

Le stazioni disponibili sono rappresentate dai dischi gialli e rossi sulla carta.

Puntare il mouse per vedere il nome della stazione.

Clicca sopra per visualizzare le osservazioni e previsioni meteorologiche.

Per cambiare la mappa : fare clic sui pulsanti verdi con una croce nera per ingrandire, il pulsante verde con un trattino per diminuire, o sulla freccia verde per le mappe adiacenti.


METAR-TAF: